Briefing drone pour Brazey-en-plaine

Rechercher une autre localisation

Conditions de vol :


Nous sommes le : Lundi 28 novembre 2022
Il est 19:29 UTC (20:29 LT)

Lever de soleil : 06:34 UTC (07:34 LT)
Coucher de soleil : 16:19 UTC (17:19 LT)

Météo

L'essentiel des conditions de vol

VIGILANCE MÉTÉO FRANCE - Côte-dOr (21)
Pas de vigilances particulieres
METAR de LFSD
LFSD 281900Z AUTO VRB02KT 1000 0800 R35/1400N BCFG FEW044 SCT052 BKN150 04/04 Q1015

Date d'émission: 28/11/2022
Heure d'émission: 19:00 UTC
Vent: Variable 2 KT (4 km/h)
Visibilité horizontale: 1000/0800 m
Plafond :
- Peu de nuages à 4400ft (1341m)
- Nuages épars à 5200ft (1585m)
- Nuages morcelés à 15000ft (4572m)
Température: 4 °C
Point de rosée: 4 °C
Humidité: 100%
Pression (QNH): 1015 hPa
Conditions: Banc de brouillard
TAF de LFSD
LFSD 010600Z 0100/0124 CNL

Conditions prévues :

Heure d'émission : Bulletin éffectué le 01 à 00:00 UTC
Prévision : Valide du 01 a 00:00 UTC au 01 a 23:59 UTC
Nuages : à 0ft (0 m)
WEBCAM POUR BRAZEY-EN-PLAINE

Réglementation

Voler en sécurité

CARTES AERONAUTIQUE 1/500.000
CARTE AZBA (Reseau basse altitude)
CARTES VAC (LFSD)
SUP AIP




Chargement des AIP...
NOTAM (BRAZEY-EN-PLAINE + Terrain à proximité / FIR )




Chargement des NOTAMS...
CONTACT PREFECTURE 21
Côte-dOr (21) : pref-drone@cote-dor.gouv.fr


Avertissement : Les données mises à disposition sont indicatives. Oxygène Drone ne pourra être tenu responsable de dégâts causés aux biens et aux personnes.